Tiempo atmosférico en la estación meteorológica de Tudela Ii, Navarra (300 m.)



Fecha
DESCASC
Temp. máxima en grados centígrados (hora)
DESCASC
Temp. mínima en grados centígrados (hora)
DESCASC
Temp. media en grados centígrados
DESCASC
Racha de viento máxima en m/sg (hora)
DESCASC
Velocidad máxima media en intervalos de 10 minutos(hora)
DESCASC
Precipitaciones diarias en mm
DESCASC
Precipitaciones de 00:00 a 06:00 en mm
DESCASC
Precipitaciones de 06:00 a 12:00 en mm
DESCASC
Precipitaciones de 12:00 a 18:00 en mm
DESCASC
Precipitaciones de 18:00 a 24:00 en mm
DESCASC

Gráficas

Temp. máximas Temp. mínimas Temp. medias Precipitaciones Rachas de viento máximas Velocidades máximas media en intervalos de 10 minutos

Datos horarios

Fecha y hora oficial Temperatura (ºC) Velocidad del viento (km/h) Dirección del viento Racha (km/h) Dirección de racha Precipitación (mm) Presión (hPa) Tendencia (hPa) Humedad (%)
2020-01-18 23:00:00 5.9 10 Norte 42 Norte 0 -- -- 93
2020-01-18 22:00:00 7 10 Noroeste 22 Oeste 3 -- -- 91
2020-01-18 21:00:00 7.7 4 Sudeste 26 Sudeste 0.4 -- -- 84
2020-01-18 20:00:00 8.3 10 Sudeste 27 Sur 0.8 -- -- 81
2020-01-18 19:00:00 9.1 12 Sudeste 31 Sur 0 -- -- 78
2020-01-18 18:00:00 10 15 Sudeste 37 Sudeste 0 -- -- 69
2020-01-18 17:00:00 10.3 17 Sudeste 30 Sudeste 0 -- -- 68
2020-01-18 16:00:00 10.9 9 Sudeste 27 Sudeste 0 -- -- 65
2020-01-18 15:00:00 11.4 9 Sudeste 23 Sur 0 -- -- 64
2020-01-18 14:00:00 11.7 9 Sudeste 30 Sudeste 0 -- -- 63
2020-01-18 13:00:00 8.7 12 Sudeste 21 Sudeste 0 -- -- 73
2020-01-18 12:00:00 6.9 9 Sudeste 19 Sudeste 0 -- -- 78
2020-01-18 11:00:00 4.4 5 Sudeste 10 Sudeste 0 -- -- 86
2020-01-18 10:00:00 3 5 Sudeste 12 Sudeste 0 -- -- 92
2020-01-18 09:00:00 2.5 4 Sudeste 9 Sudeste 0 -- -- 92
2020-01-18 08:00:00 2.3 3 Sudoeste 9 Sudoeste 0 -- -- 93
2020-01-18 07:00:00 2.5 7 Nordeste 12 Nordeste 0 -- -- 93
2020-01-18 06:00:00 2.4 4 Sur 5 Sudeste 0 -- -- 91
2020-01-18 05:00:00 2.5 0 Calma 9 Oeste 0 -- -- 90
2020-01-18 04:00:00 2.4 2 Noroeste 5 Noroeste 0 -- -- 91
2020-01-18 03:00:00 2.2 0 Calma 6 Oeste 0 -- -- 91
2020-01-18 02:00:00 2 0 Calma 8 Noroeste 0 -- -- 91
2020-01-18 01:00:00 2.4 2 Sudoeste 17 Oeste 0 -- -- 90
2020-01-18 00:00:00 3.5 9 Oeste 17 Oeste 0 -- -- 87
2020-01-17 23:00:00 4.3 8 Oeste 14 Oeste 0 -- -- 84
2020-01-17 22:00:00 4.7 5 Oeste 15 Oeste 0 -- -- 83
2020-01-17 21:00:00 5.5 4 Oeste 14 Sudoeste 0 -- -- 81
2020-01-17 20:00:00 7 3 Oeste 12 Oeste 0 -- -- 76
2020-01-17 19:00:00 8.1 4 Oeste 9 Noroeste 0 -- -- 70
2020-01-17 18:00:00 9.6 4 Noroeste 22 Norte 0 -- -- 64
2020-01-17 17:00:00 11.1 12 Norte 22 Nordeste 0 -- -- 63
2020-01-17 16:00:00 12.6 9 Norte 25 Nordeste 0 -- -- 60
2020-01-17 15:00:00 12.2 9 Norte 27 Norte 0 -- -- 63
2020-01-17 14:00:00 13.1 12 Norte 31 Noroeste 0 -- -- 63
2020-01-17 13:00:00 12.1 12 Norte 24 Norte 0 -- -- 69
2020-01-17 12:00:00 9.5 5 Nordeste 13 Nordeste 0 -- -- 80
2020-01-17 11:00:00 9.8 5 Norte 16 Norte 0 -- -- 77
2020-01-17 10:00:00 9.4 5 Oeste 15 Oeste 0 -- -- 76
2020-01-17 09:00:00 4.8 4 Sur 14 Sudeste 0 -- -- 92
2020-01-17 08:00:00 7 8 Sudeste 18 Sudoeste 0 -- -- 82
2020-01-17 07:00:00 6.9 4 Sur 15 Oeste 0 -- -- 83
2020-01-17 06:00:00 7 3 Sudeste 24 Sudoeste 0 -- -- 85
2020-01-17 05:00:00 7 3 Sudeste 12 Sudeste 0 -- -- 88
2020-01-17 04:00:00 7.8 5 Sur 19 Sur 0 -- -- 84
2020-01-17 03:00:00 8 9 Sur 17 Sur 0 -- -- 86
2020-01-17 02:00:00 9 5 Sur 17 Sudeste 0 -- -- 82
2020-01-17 01:00:00 9.1 8 Sudeste 18 Sur 0 -- -- 79
2020-01-17 00:00:00 8.6 8 Sudeste 23 Este 0 -- -- 82
2020-01-16 23:00:00 9.3 9 Sudeste 34 Sudeste 0 -- -- 79
2020-01-16 22:00:00 9 9 Sudeste 22 Sudeste 0 -- -- 81
2020-01-16 21:00:00 8.4 10 Sudeste 21 Este 0 -- -- 82
2020-01-16 20:00:00 8.5 9 Sudeste 19 Sudeste 0 -- -- 82
2020-01-16 19:00:00 9.7 6 Sudeste 24 Sudeste 0 -- -- 76
2020-01-16 18:00:00 10.9 10 Sudeste 27 Sur 0 -- -- 71
2020-01-16 17:00:00 12.1 13 Sur 33 Sur 0 -- -- 68
2020-01-16 16:00:00 12.4 16 Sudeste 28 Sur 0 -- -- 67
2020-01-16 15:00:00 12.5 15 Sudeste 26 Sudeste 0 -- -- 67
2020-01-16 14:00:00 11 13 Sudeste 23 Sudeste 0 -- -- 71
2020-01-16 13:00:00 9 8 Sudeste 18 Sudeste 0 -- -- 78
2020-01-16 12:00:00 7.1 9 Sudeste 16 Este 0 -- -- 81
2020-01-16 11:00:00 3.9 4 Sudeste 11 Sudeste 0 -- -- 90
2020-01-16 10:00:00 1.4 4 Sudoeste 10 Sudeste 0 -- -- 98
2020-01-16 09:00:00 0.6 5 Sur 10 Sudeste 0 -- -- 99
2020-01-16 08:00:00 0.8 2 Sudeste 12 Sudeste 0 -- -- 98
2020-01-16 07:00:00 0.8 3 Sur 14 Sudeste 0 -- -- 97
2020-01-16 06:00:00 1.4 11 Sudeste 15 Sudeste 0 -- -- 97
2020-01-16 05:00:00 1.9 8 Sudeste 14 Sudeste 0 -- -- 98
2020-01-16 04:00:00 1.3 5 Oeste 15 Sudoeste 0 -- -- 96
2020-01-16 03:00:00 0.8 3 Este 8 Oeste 0 -- -- 97
2020-01-16 02:00:00 1.1 3 Oeste 9 Sudeste 0 -- -- 95
2020-01-16 01:00:00 2.4 5 Sudeste 10 Sur 0 -- -- 93
2020-01-16 00:00:00 2.7 2 Sudoeste 8 Sudeste 0 -- -- 92
2020-01-15 23:00:00 3.5 4 Sur 9 Nordeste 0 -- -- 89
2020-01-15 22:00:00 3.8 4 Este 9 Este 0 -- -- 91
2020-01-15 21:00:00 4.3 4 Sur 12 Sudeste 0 -- -- 89
2020-01-15 20:00:00 5.2 6 Sudeste 10 Sudeste 0 -- -- 86
2020-01-15 19:00:00 5.9 3 Sudoeste 12 Sur 0 -- -- 83
2020-01-15 18:00:00 6.8 5 Sudeste 13 Sudeste 0 -- -- 80
2020-01-15 17:00:00 7.1 3 Sudeste 17 Sudeste 0 -- -- 80
2020-01-15 16:00:00 6.6 10 Sudeste 20 Sudeste 0 -- -- 81
2020-01-15 15:00:00 6.8 10 Sudeste 21 Sudeste 0 -- -- 78
2020-01-15 14:00:00 5 9 Sudeste 18 Sur 0 -- -- 86
2020-01-15 13:00:00 3.1 5 Sudeste 15 Sudeste 0 -- -- 91
2020-01-15 12:00:00 1.6 3 Sudeste 13 Sur 0 -- -- 94
2020-01-15 11:00:00 0.7 3 Sudeste 8 Sur 0 -- -- 94
2020-01-15 10:00:00 0.2 2 Sudoeste 8 Sudeste 0 -- -- 95
2020-01-15 09:00:00 -0.4 4 Este 12 Sudeste 0 -- -- 96
2020-01-15 08:00:00 -0.3 4 Sudeste 15 Sudeste 0 -- -- 95
2020-01-15 07:00:00 -0.1 9 Sur 17 Sudeste 0 -- -- 95
2020-01-15 06:00:00 0 5 Sur 16 Sudeste 0 -- -- 95
2020-01-15 05:00:00 -0.3 5 Sur 11 Este 0 -- -- 96
2020-01-15 04:00:00 -0.8 0 Calma 12 Sudeste 0 -- -- 97
2020-01-15 03:00:00 -0.7 4 Sudeste 10 Sudeste 0 -- -- 98
2020-01-15 02:00:00 -0.9 3 Sudoeste 10 Sudeste 0 -- -- 97
2020-01-15 01:00:00 -0.3 5 Sudeste 10 Sur 0 -- -- 96
2020-01-15 00:00:00 -0.1 3 Sur 10 Sur 0 -- -- 98
2020-01-14 23:00:00 -0.5 4 Sur 14 Sudeste 0 -- -- 98
2020-01-14 22:00:00 -0.2 5 Sudeste 13 Sudeste 0 -- -- 97
2020-01-14 21:00:00 0.7 3 Sur 14 Sudeste 0 -- -- 96
2020-01-14 20:00:00 1 4 Sur 15 Sudeste 0 -- -- 96
2020-01-14 19:00:00 0.4 9 Sur 15 Sudeste 0 -- -- 98
2020-01-14 18:00:00 0.6 4 Sudeste 9 Sudeste 0 -- -- 96
2020-01-14 17:00:00 0.6 0 Calma 8 Sudeste 0 -- -- 96
2020-01-14 16:00:00 0.6 0 Calma 9 Sudeste 0 -- -- 97
2020-01-14 15:00:00 0.2 4 Sudeste 14 Sudeste 0 -- -- 100
2020-01-14 14:00:00 -0.4 8 Sudeste 15 Sur 0 -- -- 100
2020-01-14 13:00:00 -0.8 7 Sudeste 14 Sudeste 0 -- -- 100
2020-01-14 12:00:00 -1.4 5 Sudeste 11 Sur 0 -- -- 100
2020-01-14 11:00:00 -2 4 Sur 12 Nordeste 0 -- -- 100
2020-01-14 10:00:00 -2.6 2 Sur 8 Sudeste 0 -- -- 100
2020-01-14 09:00:00 -2.7 4 Sur 10 Sudeste 0 -- -- 100
2020-01-14 08:00:00 -2.5 3 Sur 8 Sudeste 0 -- -- 100
2020-01-14 07:00:00 -2 3 Sur 7 Oeste 0 -- -- 100
2020-01-14 06:00:00 -1.8 4 Oeste 7 Noroeste 0 -- -- 100
2020-01-14 05:00:00 -2.1 3 Oeste 9 Sudeste 0 -- -- 100
2020-01-14 04:00:00 -1.7 5 Sur 14 Sudeste 0 -- -- 100
2020-01-14 03:00:00 -1.8 3 Sur 9 Sur 0 -- -- 100
2020-01-14 02:00:00 -1.7 4 Sur 7 Sur 0 -- -- 100
2020-01-14 01:00:00 -1.4 6 Sur 12 Sudoeste 0 -- -- 100
2020-01-14 00:00:00 -1 4 Sur 14 Sudeste 0 -- -- 100
2020-01-13 23:00:00 -0.4 7 Sudeste 13 Sudeste 0 -- -- 100
2020-01-13 22:00:00 -0.4 2 Sur 10 Sur 0 -- -- 100
2020-01-13 21:00:00 0.2 2 Sur 6 Sur 0 -- -- 100
2020-01-13 20:00:00 0.3 3 Sur 10 Sudeste 0 -- -- 100
2020-01-13 19:00:00 0.3 5 Sudeste 13 Sur 0 -- -- 99
2020-01-13 18:00:00 0.3 7 Sudeste 13 Sudeste 0 -- -- 98
2020-01-13 17:00:00 1.2 5 Este 12 Sudeste 0 -- -- 96
2020-01-13 16:00:00 1.2 3 Sur 10 Sur 0 -- -- 97
2020-01-13 15:00:00 0.4 3 Sudoeste 7 Oeste 0 -- -- 99
2020-01-13 14:00:00 -0.4 3 Sur 9 Sudeste 0 -- -- 100
2020-01-13 13:00:00 -1.2 3 Sudeste 9 Sudeste 0 -- -- 100
2020-01-13 12:00:00 -1.7 4 Sur 9 Sudeste 0 -- -- 100
2020-01-13 11:00:00 -2.1 3 Sudeste 7 Sudeste 0 -- -- 99
2020-01-13 10:00:00 -2.7 3 Sudeste 8 Sur 0 -- -- 99
2020-01-13 09:00:00 -2.9 3 Este 8 Sur 0 -- -- 99
2020-01-13 08:00:00 -2.6 3 Sudeste 8 Sur 0 -- -- 99
2020-01-13 07:00:00 -2.4 3 Sur 6 Sur 0 -- -- 99
2020-01-13 06:00:00 -2.1 0 Calma 5 Sur 0 -- -- 98
2020-01-13 05:00:00 -1.5 3 Sudeste 7 Sudeste 0 -- -- 98
2020-01-13 04:00:00 -1.3 0 Calma 4 Sudoeste 0 -- -- 96
2020-01-13 03:00:00 -1 0 Calma 4 Sudoeste 0 -- -- 95
2020-01-13 02:00:00 -0.3 2 Sur 4 Sur 0 -- -- 94
2020-01-13 01:00:00 0.5 0 Calma 5 Sur 0 -- -- 93
2020-01-13 00:00:00 1.5 3 Sur 6 Sudeste 0 -- -- 91
2020-01-12 23:00:00 2.5 3 Sur 6 Sur 0 -- -- 90
2020-01-12 22:00:00 3.3 4 Sur 9 Sudeste 0 -- -- 87
2020-01-12 21:00:00 4.3 3 Sur 10 Sudeste 0 -- -- 84
2020-01-12 20:00:00 5.2 2 Sur 8 Sur 0 -- -- 79
2020-01-12 19:00:00 6.8 6 Sur 12 Sudeste 0 -- -- 76
2020-01-12 18:00:00 9.1 3 Sudeste 7 Sur 0 -- -- 64
2020-01-12 17:00:00 11.1 4 Sur 8 Sudeste 0 -- -- 57
2020-01-12 16:00:00 12.2 2 Sudoeste 8 Oeste 0 -- -- 54
2020-01-12 15:00:00 11 3 Noroeste 8 Sur 0 -- -- 58
2020-01-12 14:00:00 9.6 3 Sudoeste 10 Nordeste 0 -- -- 62
2020-01-12 13:00:00 7.7 3 Nordeste 8 Norte 0 -- -- 67
2020-01-12 12:00:00 6.1 4 Norte 11 Noroeste 0 -- -- 73
2020-01-12 11:00:00 3.8 5 Oeste 15 Oeste 0 -- -- 78
2020-01-12 10:00:00 1.6 3 Oeste 9 Noroeste 0 -- -- 86
2020-01-12 09:00:00 -0.2 5 Noroeste 15 Oeste 0 -- -- 92
2020-01-12 08:00:00 -1.5 3 Oeste 8 Oeste 0 -- -- 89
2020-01-12 07:00:00 -1.2 4 Oeste 8 Oeste 0 -- -- 91
2020-01-12 06:00:00 -1.1 3 Oeste 9 Oeste 0 -- -- 86
2020-01-12 05:00:00 -0.8 2 Oeste 8 Oeste 0 -- -- 87
2020-01-12 04:00:00 -0.6 3 Oeste 5 Oeste 0 -- -- 91
2020-01-12 03:00:00 -0.4 2 Oeste 5 Oeste 0 -- -- 88
2020-01-12 02:00:00 0.6 0 Calma 6 Oeste 0 -- -- 86
2020-01-12 01:00:00 1.4 5 Oeste 9 Oeste 0 -- -- 88
2020-01-12 00:00:00 2.3 2 Noroeste 9 Oeste 0 -- -- 87
2020-01-11 23:00:00 3 4 Oeste 10 Oeste 0 -- -- 87
2020-01-11 22:00:00 2.9 4 Oeste 9 Oeste 0 -- -- 88
2020-01-11 21:00:00 3.4 3 Noroeste 9 Oeste 0 -- -- 85
2020-01-11 20:00:00 5 4 Oeste 11 Oeste 0 -- -- 80
2020-01-11 19:00:00 7.1 3 Oeste 6 Oeste 0 -- -- 72
2020-01-11 18:00:00 9.3 3 Noroeste 9 Noroeste 0 -- -- 64
2020-01-11 17:00:00 11.1 4 Norte 17 Noroeste 0 -- -- 56
2020-01-11 16:00:00 11.6 6 Norte 17 Norte 0 -- -- 53
2020-01-11 15:00:00 11.5 8 Norte 22 Noroeste 0 -- -- 55
2020-01-11 14:00:00 10.9 9 Norte 22 Norte 0 -- -- 56
2020-01-11 13:00:00 10.3 8 Norte 26 Noroeste 0 -- -- 58
2020-01-11 12:00:00 9.4 9 Noroeste 26 Noroeste 0 -- -- 63
2020-01-11 11:00:00 7.5 6 Noroeste 20 Oeste 0 -- -- 69
2020-01-11 10:00:00 4.4 8 Oeste 20 Noroeste 0 -- -- 80
2020-01-11 09:00:00 3.6 8 Noroeste 21 Noroeste 0 -- -- 81
2020-01-11 08:00:00 3.4 9 Noroeste 23 Noroeste 0 -- -- 85
2020-01-11 07:00:00 3.1 6 Oeste 14 Noroeste 0 -- -- 85
2020-01-11 06:00:00 4.8 6 Oeste 24 Oeste 0 -- -- 82
2020-01-11 05:00:00 5.5 11 Noroeste 24 Noroeste 0 -- -- 80
2020-01-11 04:00:00 5.5 11 Noroeste 30 Oeste 0 -- -- 82
2020-01-11 03:00:00 5.9 10 Noroeste 31 Noroeste 0 -- -- 81
2020-01-11 02:00:00 5.7 11 Oeste 26 Noroeste 0 -- -- 83
2020-01-11 01:00:00 6.5 10 Noroeste 33 Oeste 0 -- -- 79
2020-01-11 00:00:00 6.6 10 Noroeste 26 Noroeste 0 -- -- 79
2020-01-10 23:00:00 6.1 8 Oeste 21 Oeste 0 -- -- 82
2020-01-10 22:00:00 6.7 7 Noroeste 28 Noroeste 0 -- -- 80
2020-01-10 21:00:00 7.7 11 Noroeste 31 Norte 0 -- -- 75
2020-01-10 20:00:00 7.9 11 Norte 23 Norte 0 -- -- 75
2020-01-10 19:00:00 8.5 10 Noroeste 27 Noroeste 0 -- -- 76
2020-01-10 18:00:00 9 9 Noroeste 25 Noroeste 0 -- -- 76
2020-01-10 17:00:00 9.7 7 Noroeste 32 Noroeste 0 -- -- 75
2020-01-10 16:00:00 10.2 10 Noroeste 33 Noroeste 0 -- -- 70
2020-01-10 15:00:00 10.3 9 Noroeste 36 Noroeste 0 -- -- 69
2020-01-10 14:00:00 11.2 12 Noroeste 32 Norte 0 -- -- 65
2020-01-10 13:00:00 10.7 10 Norte 31 Noroeste 0 -- -- 66
2020-01-10 12:00:00 9.7 9 Noroeste 35 Noroeste 0 -- -- 71
2020-01-10 11:00:00 8.7 9 Noroeste 27 Noroeste 0 -- -- 74
2020-01-10 10:00:00 6.8 10 Noroeste 26 Noroeste 0 -- -- 84
2020-01-10 09:00:00 4.9 9 Oeste 24 Noroeste 0 -- -- 92
2020-01-10 08:00:00 5.1 8 Noroeste 21 Noroeste 0 -- -- 91
2020-01-10 07:00:00 3.9 5 Noroeste 13 Noroeste 0 -- -- 97
2020-01-10 06:00:00 4.5 5 Oeste 10 Nordeste 0 -- -- 97
2020-01-10 05:00:00 5 3 Noroeste 11 Noroeste 0 -- -- 100
2020-01-10 04:00:00 4.1 4 Oeste 11 Oeste 0 -- -- 100
2020-01-10 03:00:00 4 2 Nordeste 8 Oeste 0 -- -- 100
2020-01-10 02:00:00 3.7 2 Oeste 5 Oeste 0 -- -- 100
2020-01-10 01:00:00 3.6 2 Norte 9 Oeste 0 -- -- 100
2020-01-10 00:00:00 3.4 5 Oeste 12 Noroeste 0.6 -- -- 99
2020-01-09 23:00:00 3.2 3 Noroeste 9 Norte 0 -- -- 99
2020-01-09 22:00:00 3.3 2 Oeste 6 Sur 0 -- -- 100
2020-01-09 21:00:00 3 2 Oeste 5 Sudoeste 0 -- -- 100
2020-01-09 20:00:00 3 3 Oeste 17 Oeste 0 -- -- 100
2020-01-09 19:00:00 2.9 4 Noroeste 10 Noroeste 0 -- -- 100
2020-01-09 18:00:00 2.9 3 Nordeste 15 Sudeste 0 -- -- 100
2020-01-09 17:00:00 2.8 6 Sudeste 16 Sudeste 0 -- -- 100
2020-01-09 16:00:00 2.6 8 Sudeste 15 Sudeste 0 -- -- 100
2020-01-09 15:00:00 2.6 6 Sur 15 Sudeste 0 -- -- 100
2020-01-09 14:00:00 2.8 5 Sudeste 13 Sudeste 0 -- -- 100
2020-01-09 13:00:00 2.6 7 Sudeste 14 Sudeste 0 -- -- 100
2020-01-09 12:00:00 2.4 4 Sur 9 Sur 0 -- -- 100
2020-01-09 11:00:00 2.1 2 Sudoeste 8 Oeste 0 -- -- 100
2020-01-09 10:00:00 2 3 Sur 7 Sur 0 -- -- 100
2020-01-09 09:00:00 1.9 3 Sur 5 Sur 0 -- -- 100
2020-01-09 08:00:00 1.8 0 Calma 4 Sudoeste 0 -- -- 100
2020-01-09 07:00:00 1.7 0 Calma 4 Sur 0 -- -- 100
2020-01-09 06:00:00 1.6 2 Sudoeste 5 Sur 0 -- -- 100
2020-01-09 05:00:00 1.6 3 Sur 5 Sur 0 -- -- 100
2020-01-09 04:00:00 1.6 3 Sudoeste 5 Sudoeste 0 -- -- 100
2020-01-09 03:00:00 1.5 4 Sudeste 8 Sur 0 -- -- 100
2020-01-09 02:00:00 1.9 4 Sur 7 Sudoeste 0 -- -- 100
2020-01-09 01:00:00 2.2 4 Sur 10 Sudeste 0 -- -- 100
2020-01-09 00:00:00 2.4 5 Sur 14 Sur 0 -- -- 100
2020-01-08 23:00:00 2.6 8 Sudeste 16 Sudeste 0 -- -- 100
2020-01-08 22:00:00 2.9 7 Sur 17 Sudeste 0 -- -- 100
2020-01-08 21:00:00 3.1 8 Sudeste 14 Sur 0 -- -- 100
2020-01-08 20:00:00 3 7 Sudeste 14 Sur 0 -- -- 100
2020-01-08 19:00:00 2.9 6 Sudeste 13 Sudeste 0 -- -- 100
2020-01-08 18:00:00 2.9 6 Sudeste 12 Sur 0 -- -- 100
2020-01-08 17:00:00 3.3 5 Sur 11 Sudeste 0 -- -- 100
2020-01-08 16:00:00 3.2 7 Sudeste 15 Sudeste 0 -- -- 100
2020-01-08 15:00:00 3 7 Sudeste 16 Este 0 -- -- 100
2020-01-08 14:00:00 2.6 8 Sudeste 18 Sudeste 0 -- -- 100
2020-01-08 13:00:00 2.4 8 Sudeste 14 Sudeste 0 -- -- 100
2020-01-08 12:00:00 2 5 Sur 14 Sudeste 0 -- -- 100
2020-01-08 11:00:00 1.5 7 Sudeste 13 Sudeste 0 -- -- 100
2020-01-08 10:00:00 1.1 4 Sur 12 Sur 0 -- -- 100
2020-01-08 09:00:00 0.8 6 Sur 16 Sur 0 -- -- 100
2020-01-08 08:00:00 0.6 9 Sudeste 19 Sudeste 0 -- -- 100
2020-01-08 07:00:00 0.4 6 Sur 10 Sudeste 0 -- -- 100
2020-01-08 06:00:00 0.8 6 Sur 12 Sudeste 0 -- -- 100
2020-01-08 05:00:00 1 6 Sur 12 Sudeste 0 -- -- 100
2020-01-08 04:00:00 0 3 Sur 8 Sur 0 -- -- 100
2020-01-08 03:00:00 0.2 3 Sur 5 Sur 0 -- -- 100
2020-01-08 02:00:00 0.7 3 Sudoeste 14 Sudeste 0 -- -- 100
2020-01-08 01:00:00 1.1 5 Sudeste 11 Sur 0 -- -- 100
2020-01-08 00:00:00 1 5 Sudeste 14 Sudeste 0 -- -- 100
2020-01-07 23:00:00 1.4 7 Sudeste 12 Sudeste 0 -- -- 99
2020-01-07 22:00:00 2.2 5 Sur 8 Sudeste 0 -- -- 98
2020-01-07 21:00:00 2.5 4 Sur 6 Sudeste 0 -- -- 96
2020-01-07 20:00:00 3.1 3 Sur 8 Sur 0 -- -- 95
2020-01-07 19:00:00 4.1 4 Sudeste 8 Sudeste 0 -- -- 93
2020-01-07 18:00:00 4.5 2 Sur 4 Sur 0 -- -- 92
2020-01-07 17:00:00 5.6 0 Calma 4 Norte 0 -- -- 87
2020-01-07 16:00:00 5 2 Sudeste 6 Sudeste 0 -- -- 88
2020-01-07 15:00:00 3.6 3 Sur 7 Sudeste 0 -- -- 99
2020-01-07 14:00:00 1.9 3 Este 7 Sur 0 -- -- 100
2020-01-07 13:00:00 1 3 Sudoeste 7 Este 0 -- -- 100
2020-01-07 12:00:00 0.6 3 Nordeste 9 Sudeste 0 -- -- 100
2020-01-07 11:00:00 -0.7 3 Nordeste 6 Este 0 -- -- 100
2020-01-07 10:00:00 -1.6 3 Sur 5 Sudoeste 0 -- -- 100
2020-01-07 09:00:00 -1.9 0 Calma 6 Oeste 0 -- -- 100
2020-01-07 08:00:00 -1.5 4 Oeste 8 Oeste 0 -- -- 100
2020-01-07 07:00:00 -1 2 Sur 11 Sudeste 0 -- -- 100
2020-01-07 06:00:00 -1.3 5 Sur 15 Sudeste 0 -- -- 100
2020-01-07 05:00:00 -1.8 7 Sudeste 12 Sudeste 0 -- -- 100
2020-01-07 04:00:00 -0.9 4 Sur 8 Sur 0 -- -- 100
2020-01-07 03:00:00 -0.2 2 Norte 9 Noroeste 0 -- -- 100
2020-01-07 02:00:00 -0.6 0 Calma 5 Sur 0 -- -- 100
2020-01-07 01:00:00 0.3 0 Calma 6 Sur 0 -- -- 100
2020-01-07 00:00:00 0.2 2 Norte 16 Noroeste 0 -- -- 100
2020-01-06 23:00:00 0.9 8 Oeste 16 Noroeste 0 -- -- 100
2020-01-06 22:00:00 1.1 5 Norte 11 Noroeste 0 -- -- 100
2020-01-06 21:00:00 1.1 4 Noroeste 11 Noroeste 0 -- -- 99
2020-01-06 20:00:00 1.2 4 Noroeste 12 Oeste 0 -- -- 99
2020-01-06 19:00:00 1.4 7 Norte 13 Noroeste 0 -- -- 98
2020-01-06 18:00:00 1.6 4 Noroeste 12 Noroeste 0 -- -- 98
2020-01-06 17:00:00 1.9 4 Oeste 9 Noroeste 0 -- -- 98
2020-01-06 16:00:00 2.3 3 Oeste 8 Oeste 0 -- -- 99
2020-01-06 15:00:00 2.3 4 Oeste 11 Oeste 0 -- -- 100
2020-01-06 14:00:00 2.4 3 Noroeste 9 Noroeste 0 -- -- 100
2020-01-06 13:00:00 2.3 4 Noroeste 9 Oeste 0 -- -- 100
2020-01-06 12:00:00 1.9 3 Oeste 6 Sudeste 0 -- -- 100
2020-01-06 11:00:00 1.7 4 Sudeste 8 Sudeste 0 -- -- 100
2020-01-06 10:00:00 1.4 0 Calma 7 Este 0 -- -- 100